createdAt,value
2019-04-29T00:00:43.676Z,102423.16
2019-04-29T00:05:44.967Z,102423.27
2019-04-29T00:10:46.235Z,102428.09
2019-04-29T00:15:47.481Z,102437.19
2019-04-29T00:20:49.049Z,102449.30
2019-04-29T00:25:51.587Z,102444.03
2019-04-29T00:30:52.836Z,102450.97
2019-04-29T00:35:54.101Z,102449.95
2019-04-29T00:40:55.392Z,102459.37
2019-04-29T00:45:56.686Z,102456.95
2019-04-29T00:50:58.041Z,102466.66
2019-04-29T00:55:59.490Z,102470.12
2019-04-29T01:01:00.854Z,102462.33
2019-04-29T01:06:02.232Z,102466.41
2019-04-29T01:11:03.490Z,102469.22
2019-04-29T01:16:04.829Z,102463.52
2019-04-29T01:21:06.086Z,102474.03
2019-04-29T01:26:07.315Z,102471.97
2019-04-29T01:31:08.571Z,102476.86
2019-04-29T01:36:09.808Z,102473.53
2019-04-29T01:41:11.185Z,102480.89
2019-04-29T01:46:13.297Z,102496.47
2019-04-29T01:51:14.611Z,102486.70
2019-04-29T01:56:15.897Z,102496.09
2019-04-29T02:01:17.367Z,102496.77
2019-04-29T02:06:18.623Z,102499.05
2019-04-29T02:11:19.914Z,102490.09
2019-04-29T02:16:21.411Z,102498.70
2019-04-29T02:21:22.748Z,102510.11
2019-04-29T02:26:23.993Z,102518.52
2019-04-29T02:31:25.247Z,102522.19
2019-04-29T02:36:29.915Z,102522.44
2019-04-29T02:41:29.659Z,102522.47
2019-04-29T02:46:30.901Z,102525.65
2019-04-29T02:51:32.295Z,102526.95
2019-04-29T02:56:33.522Z,102531.19
2019-04-29T03:01:34.781Z,102527.80
2019-04-29T03:06:36.196Z,102534.49
2019-04-29T03:11:37.498Z,102534.24
2019-04-29T03:16:38.851Z,102537.66
2019-04-29T03:21:40.138Z,102532.84
2019-04-29T03:26:41.374Z,102537.56
2019-04-29T03:31:42.821Z,102534.95
2019-04-29T03:36:44.160Z,102536.27
2019-04-29T03:41:45.521Z,102543.07
2019-04-29T03:46:46.885Z,102546.73
2019-04-29T03:51:48.149Z,102557.83
2019-04-29T03:56:49.493Z,102560.56
2019-04-29T04:01:50.879Z,102563.69
2019-04-29T04:06:52.173Z,102562.66
2019-04-29T04:11:53.544Z,102563.97
2019-04-29T04:16:54.791Z,102564.24
2019-04-29T04:21:56.064Z,102561.87
2019-04-29T04:26:57.329Z,102558.23
2019-04-29T04:31:58.639Z,102565.03
2019-04-29T04:37:00.533Z,102563.19
2019-04-29T04:42:01.997Z,102572.79
2019-04-29T04:47:03.257Z,102582.11
2019-04-29T04:52:04.702Z,102584.05
2019-04-29T04:57:06.203Z,102587.67
2019-04-29T05:02:07.435Z,102588.34
2019-04-29T05:07:08.948Z,102595.79
2019-04-29T05:12:10.266Z,102602.16
2019-04-29T05:17:11.559Z,102601.66
2019-04-29T05:22:12.783Z,102602.31
2019-04-29T05:27:14.145Z,102608.68
2019-04-29T05:32:15.379Z,102610.34
2019-04-29T05:37:16.871Z,102617.10
2019-04-29T05:42:18.352Z,102618.61
2019-04-29T05:47:19.717Z,102621.84
2019-04-29T05:52:21.168Z,102631.95
2019-04-29T05:57:25.389Z,102643.26
2019-04-29T06:02:33.576Z,102640.86
2019-04-29T06:07:29.158Z,102640.11
2019-04-29T06:12:30.629Z,102649.48
2019-04-29T06:17:32.059Z,102644.67
2019-04-29T06:22:33.531Z,102645.25
2019-04-29T06:27:34.775Z,102647.52
2019-04-29T06:32:36.153Z,102645.91
2019-04-29T06:37:37.485Z,102651.72
2019-04-29T06:42:38.859Z,102658.59
2019-04-29T06:47:40.345Z,102663.57
2019-04-29T06:52:41.591Z,102652.34
2019-04-29T06:57:43.033Z,102665.80
2019-04-29T07:02:45.588Z,102667.95
2019-04-29T07:07:47.471Z,102676.36
2019-04-29T07:12:48.779Z,102672.44
2019-04-29T07:17:50.009Z,102682.91
2019-04-29T07:22:51.499Z,102691.53
2019-04-29T07:27:52.848Z,102694.52
2019-04-29T07:32:54.321Z,102703.17
2019-04-29T07:37:55.955Z,102703.52
2019-04-29T07:42:57.329Z,102704.41
2019-04-29T07:48:04.259Z,102711.84
2019-04-29T07:53:02.025Z,102701.95
2019-04-29T07:58:03.407Z,102698.15
2019-04-29T08:03:05.520Z,102704.13
2019-04-29T08:08:06.765Z,102695.88
2019-04-29T08:13:08.036Z,102711.91
2019-04-29T08:18:11.394Z,102703.82
2019-04-29T08:23:12.742Z,102705.62
2019-04-29T08:28:14.199Z,102710.02
2019-04-29T08:33:15.569Z,102714.55
2019-04-29T08:38:17.080Z,102717.64
2019-04-29T08:43:20.559Z,102709.94
2019-04-29T08:48:21.809Z,102708.52
2019-04-29T08:53:23.332Z,102705.17
2019-04-29T08:58:24.731Z,102709.55
2019-04-29T09:03:39.548Z,102705.45
2019-04-29T09:08:33.000Z,102703.97
2019-04-29T09:13:32.739Z,102712.19
2019-04-29T09:18:34.431Z,102708.17
2019-04-29T09:23:35.803Z,102702.26
2019-04-29T09:28:37.054Z,102702.83
2019-04-29T09:33:38.318Z,102698.18
2019-04-29T09:38:39.740Z,102700.85
2019-04-29T09:43:41.140Z,102699.47
2019-04-29T09:48:42.508Z,102688.87
2019-04-29T09:53:43.905Z,102690.63
2019-04-29T09:58:45.516Z,102682.38
2019-04-29T10:03:46.918Z,102692.77
2019-04-29T10:08:48.412Z,102676.83
2019-04-29T10:13:49.802Z,102678.86
2019-04-29T10:18:51.288Z,102678.42
2019-04-29T10:23:52.674Z,102676.23
2019-04-29T10:28:54.202Z,102678.20
2019-04-29T10:33:56.515Z,102663.91
2019-04-29T10:38:58.281Z,102653.56
2019-04-29T10:43:59.638Z,102651.56
2019-04-29T10:49:03.572Z,102647.98
2019-04-29T10:54:04.665Z,102649.70
2019-04-29T10:59:09.091Z,102641.67
2019-04-29T11:04:09.302Z,102639.73
2019-04-29T11:09:14.502Z,102639.91
2019-04-29T11:14:13.746Z,102637.63
2019-04-29T11:19:14.997Z,102631.55
2019-04-29T11:24:16.580Z,102622.27
2019-04-29T11:29:22.233Z,102620.14
2019-04-29T11:34:21.192Z,102625.45
2019-04-29T11:39:22.678Z,102619.04
2019-04-29T11:44:26.611Z,102616.29
2019-04-29T11:49:27.416Z,102613.37
2019-04-29T11:54:28.859Z,102610.45
2019-04-29T11:59:30.667Z,102614.05
2019-04-29T12:04:33.507Z,102609.89
2019-04-29T12:09:35.268Z,102607.32
2019-04-29T12:14:37.933Z,102607.75
2019-04-29T12:19:40.068Z,102602.23
2019-04-29T12:24:41.354Z,102606.78
2019-04-29T12:29:42.634Z,102609.93
2019-04-29T12:34:43.979Z,102604.89
2019-04-29T12:39:45.497Z,102594.34
2019-04-29T12:44:46.866Z,102595.48
2019-04-29T12:49:48.295Z,102596.39
2019-04-29T12:54:49.750Z,102593.83
2019-04-29T12:59:54.269Z,102596.10
2019-04-29T13:04:54.215Z,102578.55
2019-04-29T13:09:55.393Z,102580.76
2019-04-29T13:15:03.149Z,102571.28
2019-04-29T13:20:11.643Z,102574.03
2019-04-29T13:25:15.592Z,102560.99
2019-04-29T13:30:16.426Z,102552.98
2019-04-29T13:35:17.979Z,102551.82
2019-04-29T13:40:19.452Z,102557.67
2019-04-29T13:45:24.967Z,102553.82
2019-04-29T13:50:38.785Z,102551.77
2019-04-29T13:55:47.105Z,102551.16
2019-04-29T14:00:30.806Z,102549.59
2019-04-29T14:05:32.518Z,102546.95
2019-04-29T14:10:35.376Z,102549.05
2019-04-29T14:15:40.309Z,102531.88
2019-04-29T14:20:40.319Z,102531.80
2019-04-29T14:25:41.761Z,102530.66
2019-04-29T14:30:43.742Z,102531.84
2019-04-29T14:35:48.323Z,102526.83
2019-04-29T14:40:51.003Z,102515.66
2019-04-29T14:45:52.391Z,102515.93
2019-04-29T14:50:54.426Z,102511.65
2019-04-29T14:55:56.976Z,102515.75
2019-04-29T15:00:58.731Z,102515.55
2019-04-29T15:06:00.574Z,102512.88
2019-04-29T15:11:04.174Z,102516.55
2019-04-29T15:16:09.628Z,102519.63
2019-04-29T15:21:09.382Z,102527.83
2019-04-29T15:26:11.220Z,102519.81
2019-04-29T15:31:14.054Z,102517.09
2019-04-29T15:36:16.328Z,102522.73
2019-04-29T15:41:17.990Z,102525.63
2019-04-29T15:46:19.454Z,102528.77
2019-04-29T15:51:20.994Z,102535.13
2019-04-29T15:56:28.743Z,102538.28
2019-04-29T16:01:28.257Z,102536.36
2019-04-29T16:11:33.449Z,102540.67
2019-04-29T16:16:34.061Z,102529.46
2019-04-29T16:21:39.527Z,102549.44
2019-04-29T16:26:39.267Z,102542.33
2019-04-29T16:31:40.979Z,102539.83
2019-04-29T16:36:43.684Z,102533.02
2019-04-29T16:41:50.963Z,102542.91
2019-04-29T16:46:49.322Z,102540.58
2019-04-29T16:51:53.785Z,102533.54
2019-04-29T16:56:55.138Z,102536.52
2019-04-29T17:01:56.575Z,102536.47
2019-04-29T17:07:11.901Z,102538.34
2019-04-29T17:12:01.476Z,102536.48
2019-04-29T17:17:02.751Z,102528.83
2019-04-29T17:22:24.715Z,102520.25
2019-04-29T17:27:07.688Z,102520.86
2019-04-29T17:32:09.824Z,102520.95
2019-04-29T17:37:12.192Z,102524.70
2019-04-29T17:42:13.931Z,102522.59
2019-04-29T17:47:15.629Z,102515.34
2019-04-29T17:52:17.924Z,102520.81
2019-04-29T17:57:28.336Z,102532.44
2019-04-29T18:02:23.271Z,102528.59
2019-04-29T18:07:25.357Z,102535.91
2019-04-29T18:12:27.514Z,102537.33
2019-04-29T18:17:31.167Z,102537.50
2019-04-29T18:22:32.264Z,102539.86
2019-04-29T18:27:35.044Z,102547.70
2019-04-29T18:32:42.255Z,102549.95
2019-04-29T18:37:41.021Z,102549.04
2019-04-29T18:42:43.406Z,102552.27
2019-04-29T18:47:45.676Z,102558.35
2019-04-29T18:52:47.040Z,102560.30
2019-04-29T18:57:48.518Z,102566.92
2019-04-29T19:02:57.039Z,102566.71
2019-04-29T19:07:57.037Z,102575.52
2019-04-29T19:13:00.081Z,102571.74
2019-04-29T19:18:02.006Z,102575.55
2019-04-29T19:23:07.855Z,102586.10
2019-04-29T19:28:15.012Z,102596.72
2019-04-29T19:33:09.832Z,102595.80
2019-04-29T19:38:13.434Z,102600.07
2019-04-29T19:43:17.696Z,102598.80
2019-04-29T19:48:17.769Z,102603.13
2019-04-29T19:53:19.722Z,102610.53
2019-04-29T19:58:28.328Z,102605.09
2019-04-29T20:03:35.440Z,102608.10
2019-04-29T20:08:50.173Z,102606.13
2019-04-29T20:13:34.699Z,102616.66
2019-04-29T20:18:40.411Z,102613.92
2019-04-29T20:23:39.928Z,102616.30
2019-04-29T20:28:41.848Z,102616.63
2019-04-29T20:33:46.968Z,102622.22
2019-04-29T20:38:47.063Z,102619.38
2019-04-29T20:43:48.815Z,102624.64
2019-04-29T20:48:54.595Z,102635.36
2019-04-29T20:53:53.469Z,102625.55
2019-04-29T20:58:55.333Z,102633.45
2019-04-29T21:03:57.212Z,102625.78
2019-04-29T21:08:58.595Z,102631.19
2019-04-29T21:14:00.147Z,102623.21
2019-04-29T21:19:01.588Z,102625.33
2019-04-29T21:24:08.479Z,102624.34
2019-04-29T21:29:06.445Z,102621.52
2019-04-29T21:34:07.803Z,102630.45
2019-04-29T21:39:09.093Z,102632.49
2019-04-29T21:44:10.541Z,102622.40
2019-04-29T21:49:12.769Z,102628.66
2019-04-29T21:54:15.700Z,102632.02
2019-04-29T21:59:17.211Z,102622.69
2019-04-29T22:04:18.557Z,102630.00
2019-04-29T22:09:20.024Z,102626.89
2019-04-29T22:14:21.475Z,102616.97
2019-04-29T22:19:24.626Z,102617.78
2019-04-29T22:24:27.505Z,102613.16
2019-04-29T22:29:37.339Z,102614.80
2019-04-29T22:34:38.965Z,102609.16
2019-04-29T22:39:40.333Z,102608.77
2019-04-29T22:44:41.602Z,102609.56
2019-04-29T22:49:42.973Z,102617.46
2019-04-29T22:54:45.786Z,102616.87
2019-04-29T22:59:49.468Z,102613.14
2019-04-29T23:04:53.828Z,102613.86
2019-04-29T23:09:55.496Z,102615.17
2019-04-29T23:14:58.597Z,102604.97
2019-04-29T23:20:00.278Z,102603.95
2019-04-29T23:25:01.865Z,102596.48
2019-04-29T23:30:04.675Z,102599.84
2019-04-29T23:35:09.665Z,102602.95
2019-04-29T23:40:09.776Z,102599.92
2019-04-29T23:45:14.571Z,102593.95
2019-04-29T23:50:18.599Z,102588.94
2019-04-29T23:55:20.530Z,102589.34
